Time;durP1;ratioP1;P1;durP2;ratioP2;P2;SDS_P1;SDS_P2;PMS_P1;PMS_P2;Temp;Humidity;BMP_temperature;BMP_pressure;BME280_temperature;BME280_humidity;BME280_pressure;Samples;Min_cycle;Max_cycle;Signal;HPM_P1;HPM_P2
2023/08/11 00:02:15;;;;;;;5.83;4.00;;;11.90;1.00;;;;;;5114802;28;20501;-51
2023/08/11 00:04:41;;;;;;;9.50;3.50;;;11.90;1.00;;;;;;5114918;28;20211;-51
2023/08/11 00:07:06;;;;;;;6.40;3.40;;;11.80;99.90;;;;;;5114693;28;20188;-51
2023/08/11 00:09:32;;;;;;;6.77;3.67;;;11.80;96.70;;;;;;5114769;28;20175;-51
2023/08/11 00:11:57;;;;;;;6.30;3.83;;;11.80;99.90;;;;;;5114457;28;20652;-50
2023/08/11 00:14:23;;;;;;;8.30;3.80;;;11.80;1.00;;;;;;5113897;28;20205;-50
2023/08/11 00:16:49;;;;;;;9.70;4.50;;;11.80;1.00;;;;;;5114798;28;20176;-50
2023/08/11 00:19:14;;;;;;;4.50;3.50;;;11.80;1.00;;;;;;5114403;28;20182;-51
2023/08/11 00:21:41;;;;;;;8.47;3.70;;;11.80;1.00;;;;;;5114263;28;20283;-50
2023/08/11 00:24:07;;;;;;;11.87;3.67;;;11.80;1.00;;;;;;5114229;28;20298;-50
2023/08/11 00:26:32;;;;;;;10.60;4.67;;;11.80;1.00;;;;;;5114206;28;20513;-50
2023/08/11 00:28:58;;;;;;;11.80;4.10;;;11.80;1.00;;;;;;5114821;28;20184;-49
2023/08/11 00:31:24;;;;;;;4.80;3.87;;;11.80;99.90;;;;;;5114193;28;20185;-50
2023/08/11 00:33:51;;;;;;;7.60;4.50;;;11.80;99.90;;;;;;5113694;28;20191;-49
2023/08/11 00:36:17;;;;;;;11.27;4.17;;;11.70;99.90;;;;;;5114342;28;20188;-50
2023/08/11 00:38:43;;;;;;;5.20;3.83;;;11.70;1.00;;;;;;5114306;28;20410;-50
2023/08/11 00:41:08;;;;;;;11.90;4.53;;;11.70;1.00;;;;;;5114302;28;20674;-50
2023/08/11 00:43:34;;;;;;;10.87;5.00;;;11.70;1.00;;;;;;5114187;28;20249;-51
2023/08/11 00:46:11;;;;;;;7.10;4.30;;;11.70;99.90;;;;;;5113895;28;20930;-50
2023/08/11 00:48:38;;;;;;;7.17;4.27;;;11.70;99.90;;;;;;5113921;28;20642;-51
2023/08/11 00:51:05;;;;;;;5.93;4.10;;;11.70;1.00;;;;;;5114179;28;20418;-51
2023/08/11 00:53:34;;;;;;;9.70;4.53;;;11.80;1.00;;;;;;5114083;28;20422;-52
2023/08/11 00:56:01;;;;;;;9.33;4.70;;;11.80;99.90;;;;;;5114339;28;20764;-51
2023/08/11 00:58:29;;;;;;;6.30;4.40;;;11.80;1.00;;;;;;5113976;28;20519;-50
2023/08/11 01:00:56;;;;;;;10.93;4.80;;;11.90;99.90;;;;;;5113620;28;20943;-51
2023/08/11 01:03:22;;;;;;;9.33;4.30;;;12.00;1.00;;;;;;5113769;28;20418;-50
2023/08/11 01:06:00;;;;;;;5.60;3.93;;;12.10;1.00;;;;;;5113503;28;20428;-50
2023/08/11 01:08:25;;;;;;;10.33;4.20;;;12.20;11.70;;;;;;5113531;28;20184;-50
2023/08/11 01:11:04;;;;;;;8.67;4.30;;;12.20;1.00;;;;;;5113022;28;20426;-49
2023/08/11 01:13:35;;;;;;;7.23;4.40;;;12.30;1.00;;;;;;5113281;28;20180;-50
2023/08/11 01:16:04;;;;;;;7.27;3.73;;;12.40;99.90;;;;;;5111880;28;20914;-51
2023/08/11 01:18:30;;;;;;;5.83;3.93;;;12.50;99.90;;;;;;5113541;28;20940;-51
2023/08/11 01:21:11;;;;;;;8.30;4.10;;;12.50;99.90;;;;;;5113098;28;20466;-50
2023/08/11 01:23:37;;;;;;;7.80;3.80;;;12.60;62.90;;;;;;5113052;28;20497;-51
2023/08/11 01:26:03;;;;;;;9.73;4.53;;;12.70;99.90;;;;;;5113240;28;20421;-52
2023/08/11 01:28:29;;;;;;;6.90;3.97;;;12.70;99.90;;;;;;5113709;28;20421;-50
2023/08/11 01:30:54;;;;;;;5.13;3.97;;;12.80;99.90;;;;;;5112995;28;20418;-50
2023/08/11 01:33:20;;;;;;;6.03;3.70;;;12.80;1.00;;;;;;5112993;28;20187;-50
2023/08/11 01:35:46;;;;;;;7.30;4.10;;;12.80;1.00;;;;;;5113235;28;20184;-50
2023/08/11 01:38:12;;;;;;;7.33;4.20;;;12.80;1.00;;;;;;5113108;28;20289;-51
2023/08/11 01:40:39;;;;;;;7.50;4.90;;;12.90;1.00;;;;;;5112977;28;20192;-50
2023/08/11 01:43:07;;;;;;;7.53;4.40;;;12.90;1.00;;;;;;5112837;28;20751;-51
2023/08/11 01:45:33;;;;;;;8.70;4.30;;;13.00;1.00;;;;;;5113026;28;20457;-51
2023/08/11 01:48:00;;;;;;;11.40;4.70;;;13.10;1.00;;;;;;5113354;28;20422;-50
2023/08/11 01:50:27;;;;;;;8.00;4.37;;;13.10;1.00;;;;;;5112738;28;20909;-50
2023/08/11 01:52:54;;;;;;;8.67;3.80;;;13.20;1.00;;;;;;5112723;28;20467;-51
2023/08/11 01:55:20;;;;;;;6.37;3.87;;;13.20;99.90;;;;;;5112667;28;20453;-51
2023/08/11 01:57:46;;;;;;;6.40;4.37;;;13.20;99.90;;;;;;5112980;28;20497;-51
2023/08/11 02:00:16;;;;;;;7.57;4.00;;;13.30;4.50;;;;;;5112660;28;20416;-51
2023/08/11 02:02:43;;;;;;;6.20;4.40;;;13.30;99.90;;;;;;5112898;28;20840;-51
2023/08/11 02:05:11;;;;;;;6.87;4.03;;;13.30;1.00;;;;;;5112156;28;20909;-50
2023/08/11 02:07:37;;;;;;;6.63;4.20;;;13.40;99.90;;;;;;5112829;28;20417;-51
2023/08/11 02:10:03;;;;;;;6.40;3.87;;;13.40;99.90;;;;;;5112858;28;20409;-52
2023/08/11 02:12:30;;;;;;;11.23;4.23;;;13.40;36.40;;;;;;5112691;28;20986;-50
2023/08/11 02:14:56;;;;;;;11.17;4.20;;;13.40;99.90;;;;;;5112741;28;20422;-51
2023/08/11 02:17:21;;;;;;;5.33;4.30;;;13.50;99.90;;;;;;5112740;28;20546;-51
2023/08/11 02:19:47;;;;;;;6.20;4.47;;;13.50;99.90;;;;;;5112743;28;20191;-51
2023/08/11 02:22:13;;;;;;;5.27;3.73;;;13.60;1.00;;;;;;5112323;28;20611;-50
2023/08/11 02:24:39;;;;;;;4.97;4.07;;;13.60;99.90;;;;;;5112284;28;20264;-51
2023/08/11 02:27:04;;;;;;;11.20;4.27;;;13.60;1.00;;;;;;5112702;28;20216;-51
2023/08/11 02:29:30;;;;;;;7.03;4.83;;;13.60;99.90;;;;;;5112597;28;20179;-51
2023/08/11 02:31:56;;;;;;;7.97;4.40;;;13.60;99.90;;;;;;5112390;28;20239;-50
2023/08/11 02:34:21;;;;;;;8.83;4.00;;;13.70;1.00;;;;;;5112290;28;20205;-50
2023/08/11 02:36:47;;;;;;;12.73;5.23;;;13.70;99.90;;;;;;5114763;28;20174;-51
2023/08/11 02:39:13;;;;;;;6.23;4.43;;;13.70;1.00;;;;;;5116733;28;20270;-51
2023/08/11 02:41:39;;;;;;;7.63;4.57;;;13.70;1.00;;;;;;5116640;28;20186;-51
2023/08/11 02:44:04;;;;;;;8.60;4.50;;;13.70;1.00;;;;;;5116514;28;20448;-51
2023/08/11 02:46:31;;;;;;;8.83;4.80;;;13.70;1.00;;;;;;5116557;28;20188;-50
2023/08/11 02:48:57;;;;;;;7.90;4.30;;;13.80;1.00;;;;;;5116277;28;20184;-51
2023/08/11 02:51:22;;;;;;;10.63;5.00;;;13.80;99.90;;;;;;5116289;28;20550;-51
2023/08/11 02:53:48;;;;;;;7.60;3.83;;;13.90;99.90;;;;;;5116459;28;20426;-51
2023/08/11 02:56:15;;;;;;;7.67;4.90;;;13.90;10.70;;;;;;5116037;28;20658;-51
2023/08/11 02:58:44;;;;;;;7.13;4.37;;;13.90;99.90;;;;;;5116371;28;20215;-52
2023/08/11 03:01:09;;;;;;;9.80;4.80;;;13.90;99.90;;;;;;5115729;28;20433;-51
2023/08/11 03:03:35;;;;;;;7.77;4.40;;;14.00;1.00;;;;;;5116184;28;20409;-51
2023/08/11 03:06:01;;;;;;;10.33;4.53;;;14.00;85.00;;;;;;5116181;28;20628;-50
2023/08/11 03:08:27;;;;;;;9.13;4.97;;;14.00;22.50;;;;;;5115812;28;20186;-51
2023/08/11 03:10:53;;;;;;;8.30;4.80;;;14.00;99.90;;;;;;5116073;28;20182;-51
2023/08/11 03:13:18;;;;;;;11.80;5.50;;;14.00;99.90;;;;;;5116081;28;20748;-51
2023/08/11 03:15:44;;;;;;;13.43;4.90;;;14.10;1.00;;;;;;5115834;28;20180;-51
2023/08/11 03:18:10;;;;;;;5.83;4.57;;;14.10;1.00;;;;;;5115847;28;20180;-52
2023/08/11 03:20:36;;;;;;;12.97;4.90;;;14.10;1.00;;;;;;5115727;28;20183;-51
2023/08/11 03:23:04;;;;;;;5.47;4.43;;;14.20;99.90;;;;;;5115891;28;20822;-51
2023/08/11 03:25:29;;;;;;;12.90;5.20;;;14.20;99.90;;;;;;5116021;28;20456;-51
2023/08/11 03:27:56;;;;;;;5.77;4.70;;;14.20;99.90;;;;;;5115754;28;20953;-51
2023/08/11 03:30:22;;;;;;;6.77;4.83;;;14.20;99.90;;;;;;5115364;28;20187;-51
2023/08/11 03:32:48;;;;;;;14.93;5.67;;;14.20;1.00;;;;;;5115654;28;20424;-51
2023/08/11 03:35:13;;;;;;;10.17;5.17;;;14.30;1.00;;;;;;5115643;28;20417;-51
2023/08/11 03:37:39;;;;;;;7.50;4.73;;;14.30;1.00;;;;;;5115551;28;20184;-50
2023/08/11 03:40:12;;;;;;;6.47;4.50;;;14.30;1.00;;;;;;5115565;28;20659;-51
2023/08/11 03:42:42;;;;;;;8.00;4.27;;;14.30;1.00;;;;;;5115497;28;20179;-51
2023/08/11 03:45:14;;;;;;;10.80;4.40;;;14.30;99.90;;;;;;5115457;28;20456;-51
2023/08/11 03:47:41;;;;;;;9.30;4.60;;;14.30;99.90;;;;;;5115131;28;20485;-51
2023/08/11 03:50:07;;;;;;;8.43;4.60;;;14.30;1.00;;;;;;5115346;28;20421;-51
2023/08/11 03:52:33;;;;;;;4.47;3.70;;;14.40;99.90;;;;;;5115515;28;20769;-51
2023/08/11 03:54:59;;;;;;;10.83;5.20;;;14.40;99.90;;;;;;5115381;28;20483;-52
2023/08/11 03:57:28;;;;;;;5.13;4.10;;;14.40;99.90;;;;;;5115208;28;20413;-51
2023/08/11 03:59:54;;;;;;;14.83;4.33;;;14.40;36.70;;;;;;5114636;28;20184;-51
2023/08/11 04:02:19;;;;;;;8.13;4.47;;;14.40;1.00;;;;;;5114836;28;20467;-52
2023/08/11 04:04:45;;;;;;;10.33;4.37;;;14.50;1.00;;;;;;5115024;28;20458;-51
2023/08/11 04:07:11;;;;;;;14.00;4.40;;;14.50;1.00;;;;;;5115087;28;20190;-51
2023/08/11 04:09:43;;;;;;;7.00;4.30;;;14.50;99.90;;;;;;5114823;28;20439;-51
2023/08/11 04:12:10;;;;;;;6.20;4.33;;;14.50;99.90;;;;;;5115031;28;20425;-51
2023/08/11 04:14:37;;;;;;;7.70;4.10;;;14.50;99.90;;;;;;5114088;28;20930;-52
2023/08/11 04:17:02;;;;;;;8.20;3.80;;;14.50;99.90;;;;;;5114743;28;20428;-51
2023/08/11 04:19:28;;;;;;;5.43;3.80;;;14.60;34.10;;;;;;5114760;28;20944;-50
2023/08/11 04:21:54;;;;;;;4.87;3.80;;;14.60;1.00;;;;;;5113679;28;20235;-51
2023/08/11 04:24:19;;;;;;;7.80;3.67;;;14.60;99.90;;;;;;5114448;28;20720;-51
2023/08/11 04:26:45;;;;;;;11.40;3.90;;;14.70;99.90;;;;;;5114480;28;20184;-50
2023/08/11 04:29:12;;;;;;;7.80;3.33;;;14.70;99.90;;;;;;5113875;28;20634;-52
2023/08/11 04:31:38;;;;;;;6.23;3.80;;;14.70;99.30;;;;;;5114158;28;20184;-51
2023/08/11 04:34:05;;;;;;;5.93;3.20;;;14.80;99.90;;;;;;5114628;28;20415;-51
2023/08/11 04:36:31;;;;;;;7.20;3.90;;;14.80;5.90;;;;;;5114256;28;20487;-51
2023/08/11 04:38:56;;;;;;;8.70;4.10;;;14.80;1.00;;;;;;5114225;28;20418;-50
2023/08/11 04:41:22;;;;;;;4.70;3.30;;;14.80;1.00;;;;;;5113895;28;20256;-51
2023/08/11 04:43:48;;;;;;;7.47;4.00;;;14.90;1.00;;;;;;5114071;28;20243;-51
2023/08/11 04:46:14;;;;;;;8.33;3.57;;;14.90;1.00;;;;;;5114148;28;20182;-51
2023/08/11 04:48:40;;;;;;;6.00;3.60;;;14.90;99.90;;;;;;5114052;28;20421;-51
2023/08/11 04:51:06;;;;;;;6.40;3.77;;;15.00;99.90;;;;;;5113777;28;20421;-51
2023/08/11 04:53:32;;;;;;;8.10;3.83;;;15.00;99.90;;;;;;5114238;28;20506;-51
2023/08/11 04:55:57;;;;;;;6.17;4.17;;;15.00;99.90;;;;;;5113924;28;20409;-52
2023/08/11 04:58:23;;;;;;;6.10;3.93;;;15.10;99.90;;;;;;5113112;28;20202;-51
2023/08/11 05:00:49;;;;;;;5.23;3.33;;;15.20;99.90;;;;;;5113509;28;20187;-52
2023/08/11 05:03:14;;;;;;;7.37;3.20;;;15.20;99.90;;;;;;5113573;28;20172;-53
2023/08/11 05:05:41;;;;;;;6.80;4.03;;;15.20;99.90;;;;;;5113357;28;20215;-51
2023/08/11 05:08:07;;;;;;;6.20;3.80;;;15.20;99.90;;;;;;5113488;28;20241;-52
2023/08/11 05:10:33;;;;;;;11.03;3.50;;;15.30;99.90;;;;;;5113903;28;20421;-50
2023/08/11 05:12:59;;;;;;;9.80;3.63;;;15.30;99.90;;;;;;5113583;28;20178;-51
2023/08/11 05:15:24;;;;;;;6.50;3.50;;;15.40;99.90;;;;;;5113555;28;20450;-52
2023/08/11 05:17:50;;;;;;;10.07;3.90;;;15.50;99.90;;;;;;5113491;28;20464;-52
2023/08/11 05:20:16;;;;;;;5.67;3.50;;;15.50;99.90;;;;;;5113505;28;20638;-51
2023/08/11 05:22:43;;;;;;;5.90;3.47;;;15.50;99.90;;;;;;5112711;28;20237;-51
2023/08/11 05:25:09;;;;;;;8.43;3.77;;;15.60;99.90;;;;;;5113333;28;20515;-52
2023/08/11 05:27:34;;;;;;;10.23;4.63;;;15.60;1.00;;;;;;5113253;28;20420;-51
2023/08/11 05:30:00;;;;;;;8.30;4.00;;;15.60;1.00;;;;;;5113280;28;20185;-51
2023/08/11 05:32:26;;;;;;;12.77;5.17;;;15.70;99.90;;;;;;5113238;28;20683;-52
2023/08/11 05:34:52;;;;;;;8.90;3.80;;;15.80;99.90;;;;;;5113172;28;20637;-52
2023/08/11 05:37:18;;;;;;;8.07;3.70;;;15.80;99.90;;;;;;5112953;28;20670;-52
2023/08/11 05:39:44;;;;;;;8.67;4.07;;;15.90;99.90;;;;;;5112489;28;20535;-52
2023/08/11 05:42:10;;;;;;;9.90;4.10;;;15.90;99.90;;;;;;5113106;28;20211;-52
2023/08/11 05:44:35;;;;;;;5.50;3.80;;;16.00;99.90;;;;;;5113082;28;20572;-53
2023/08/11 05:47:01;;;;;;;5.80;3.50;;;16.10;99.90;;;;;;5112657;28;20183;-51
2023/08/11 05:49:27;;;;;;;13.23;4.40;;;16.10;99.90;;;;;;5112964;28;20225;-51
2023/08/11 05:51:52;;;;;;;12.00;4.63;;;16.20;99.90;;;;;;5112600;28;20190;-51
2023/08/11 05:54:18;;;;;;;9.53;4.30;;;16.20;99.90;;;;;;5112878;28;20228;-51
2023/08/11 05:56:44;;;;;;;14.13;4.33;;;16.30;99.90;;;;;;5112547;28;20665;-51
2023/08/11 05:59:09;;;;;;;6.10;4.20;;;16.30;99.90;;;;;;5112303;28;20706;-52
2023/08/11 06:01:35;;;;;;;11.63;4.20;;;16.30;99.90;;;;;;5113053;28;20183;-52
2023/08/11 06:04:01;;;;;;;13.73;5.20;;;16.40;99.90;;;;;;5112347;28;20603;-51
2023/08/11 06:06:27;;;;;;;12.27;5.50;;;16.50;1.00;;;;;;5112729;28;20254;-52
2023/08/11 06:08:54;;;;;;;7.57;4.53;;;16.50;99.90;;;;;;5112364;28;20406;-52
2023/08/11 06:11:20;;;;;;;8.23;3.93;;;16.60;99.90;;;;;;5112655;28;20180;-51
2023/08/11 06:13:46;;;;;;;9.20;4.23;;;16.60;99.90;;;;;;5112676;28;20410;-51
2023/08/11 06:16:11;;;;;;;7.80;4.40;;;16.70;99.90;;;;;;5112588;28;20842;-52
2023/08/11 06:18:38;;;;;;;6.73;4.57;;;16.80;36.90;;;;;;5112565;28;20233;-54
2023/08/11 06:21:04;;;;;;;6.47;3.90;;;16.80;1.00;;;;;;5112576;28;20590;-52
2023/08/11 06:23:31;;;;;;;6.03;4.23;;;16.80;1.00;;;;;;5112682;28;20406;-51
2023/08/11 06:25:56;;;;;;;8.90;4.23;;;16.90;1.00;;;;;;5112496;28;20448;-51
2023/08/11 06:28:22;;;;;;;9.27;4.33;;;16.90;1.00;;;;;;5112278;28;20780;-53
2023/08/11 06:30:48;;;;;;;11.13;5.10;;;17.00;59.10;;;;;;5112572;28;20180;-52
2023/08/11 06:33:13;;;;;;;13.53;4.60;;;17.00;1.00;;;;;;5112201;28;20241;-52
2023/08/11 06:35:39;;;;;;;7.50;4.20;;;17.00;99.90;;;;;;5112488;28;20183;-53
2023/08/11 06:38:05;;;;;;;8.73;4.00;;;17.00;99.90;;;;;;5112692;28;20178;-52
2023/08/11 06:40:30;;;;;;;8.80;4.07;;;17.10;99.90;;;;;;5112310;28;20658;-51
2023/08/11 06:42:56;;;;;;;10.77;4.30;;;17.10;99.90;;;;;;5112098;28;20185;-51
2023/08/11 06:45:21;;;;;;;8.03;4.33;;;17.20;99.90;;;;;;5111796;28;20213;-51
2023/08/11 06:47:47;;;;;;;6.23;3.90;;;17.20;99.90;;;;;;5112295;28;20180;-52
2023/08/11 06:50:13;;;;;;;7.43;4.00;;;17.20;99.90;;;;;;5111781;28;20181;-52
2023/08/11 06:52:38;;;;;;;6.37;4.57;;;17.30;99.90;;;;;;5112151;28;20661;-53
2023/08/11 06:55:05;;;;;;;6.87;4.60;;;17.30;99.90;;;;;;5112571;28;20188;-52
2023/08/11 06:57:30;;;;;;;9.33;4.00;;;17.30;99.90;;;;;;5112225;28;20341;-51
2023/08/11 06:59:56;;;;;;;8.63;4.30;;;17.40;99.90;;;;;;5112179;28;20417;-52
2023/08/11 07:02:22;;;;;;;9.17;4.40;;;17.50;99.90;;;;;;5112181;28;20231;-53
2023/08/11 07:04:48;;;;;;;7.30;4.40;;;17.60;99.90;;;;;;5111772;28;20261;-52
2023/08/11 07:07:13;;;;;;;11.93;5.20;;;17.70;99.90;;;;;;5112259;28;20211;-52
2023/08/11 07:09:39;;;;;;;11.53;4.63;;;17.80;99.90;;;;;;5111953;28;20174;-53
2023/08/11 07:12:05;;;;;;;6.97;4.17;;;17.90;99.90;;;;;;5112358;28;20190;-52
2023/08/11 07:14:31;;;;;;;10.47;4.37;;;18.00;99.90;;;;;;5112085;28;20213;-51
2023/08/11 07:16:57;;;;;;;10.80;4.90;;;18.00;99.90;;;;;;5111290;28;20479;-51
2023/08/11 07:19:22;;;;;;;13.63;4.63;;;18.10;99.90;;;;;;5111721;28;20418;-52
2023/08/11 07:21:48;;;;;;;8.37;4.90;;;18.20;99.90;;;;;;5112343;28;20226;-53
2023/08/11 07:24:13;;;;;;;9.13;5.00;;;18.30;99.90;;;;;;5115630;28;20721;-52
2023/08/11 07:26:39;;;;;;;11.03;4.97;;;18.30;99.90;;;;;;5115731;28;20188;-53
2023/08/11 07:29:05;;;;;;;7.73;4.70;;;18.40;99.90;;;;;;5115963;28;20184;-52
2023/08/11 07:31:30;;;;;;;9.03;4.77;;;18.40;99.90;;;;;;5115393;28;20178;-53
2023/08/11 07:33:56;;;;;;;8.83;4.00;;;18.40;71.90;;;;;;5115567;28;20182;-51
2023/08/11 07:36:22;;;;;;;8.20;4.90;;;18.50;44.60;;;;;;5115116;28;20178;-51
2023/08/11 07:38:47;;;;;;;6.20;4.57;;;18.50;18.90;;;;;;5115449;28;20175;-51
2023/08/11 07:41:13;;;;;;;10.97;4.33;;;18.50;5.40;;;;;;5115036;28;20182;-51
2023/08/11 07:43:39;;;;;;;9.77;4.00;;;18.60;2.20;;;;;;5115521;28;20269;-51
2023/08/11 07:46:05;;;;;;;9.20;3.70;;;18.70;1.00;;;;;;5115270;28;20192;-51
2023/08/11 07:48:30;;;;;;;11.00;4.30;;;18.80;1.00;;;;;;5115272;28;20185;-53
2023/08/11 07:50:56;;;;;;;4.83;4.20;;;18.80;1.00;;;;;;5115182;28;20410;-50
2023/08/11 07:53:22;;;;;;;12.93;4.47;;;18.90;1.00;;;;;;5115241;28;20180;-51
2023/08/11 07:55:47;;;;;;;11.40;4.47;;;19.00;1.00;;;;;;5114873;28;20667;-53
2023/08/11 07:58:13;;;;;;;6.03;4.13;;;19.00;1.00;;;;;;5115053;28;20184;-53
2023/08/11 08:00:39;;;;;;;8.17;4.50;;;19.10;1.00;;;;;;5114988;28;20210;-51
2023/08/11 08:03:04;;;;;;;8.10;4.73;;;19.20;1.00;;;;;;5114884;28;20230;-52
2023/08/11 08:05:31;;;;;;;8.27;4.40;;;19.30;1.00;;;;;;5114882;28;20218;-51
2023/08/11 08:07:57;;;;;;;9.40;4.47;;;19.40;1.00;;;;;;5114603;28;20187;-52
2023/08/11 08:10:25;;;;;;;10.83;4.50;;;19.40;1.00;;;;;;5114835;28;20418;-52
2023/08/11 08:12:50;;;;;;;10.37;4.03;;;19.50;1.00;;;;;;5114365;28;20537;-53
2023/08/11 08:15:17;;;;;;;6.97;4.50;;;19.60;1.00;;;;;;5114736;28;20415;-51
2023/08/11 08:17:44;;;;;;;4.50;4.10;;;19.60;1.00;;;;;;5114402;28;20424;-52
2023/08/11 08:20:13;;;;;;;11.20;4.53;;;19.70;1.00;;;;;;5114607;28;20903;-51
2023/08/11 08:22:39;;;;;;;8.07;4.60;;;19.80;1.00;;;;;;5114486;28;20564;-51
2023/08/11 08:25:08;;;;;;;6.47;4.50;;;19.80;1.00;;;;;;5114673;28;21056;-52
2023/08/11 08:27:39;;;;;;;8.33;4.90;;;20.00;1.00;;;;;;5114553;28;20417;-52
2023/08/11 08:30:06;;;;;;;9.33;4.20;;;20.00;1.00;;;;;;5114585;28;20397;-52
2023/08/11 08:32:33;;;;;;;6.43;4.40;;;20.20;1.00;;;;;;5113611;28;20410;-52
2023/08/11 08:34:59;;;;;;;8.00;5.20;;;20.40;1.00;;;;;;5113442;28;20417;-51
2023/08/11 08:37:24;;;;;;;5.70;4.60;;;20.50;1.00;;;;;;5114123;28;20815;-52
2023/08/11 08:39:51;;;;;;;5.03;4.40;;;20.60;1.00;;;;;;5113976;28;20183;-52
2023/08/11 08:42:18;;;;;;;7.17;4.80;;;20.70;1.00;;;;;;5114309;28;20188;-52
2023/08/11 08:44:47;;;;;;;9.07;4.77;;;20.70;1.00;;;;;;5114151;28;20460;-52
2023/08/11 08:47:13;;;;;;;7.97;4.90;;;20.80;1.00;;;;;;5114001;28;20825;-53
2023/08/11 08:49:40;;;;;;;5.97;4.30;;;20.90;1.00;;;;;;5114473;28;20418;-53
2023/08/11 08:52:06;;;;;;;8.00;6.47;;;21.00;1.00;;;;;;5114301;28;20271;-53
2023/08/11 08:54:33;;;;;;;7.57;5.50;;;21.10;1.00;;;;;;5113780;28;20410;-53
2023/08/11 08:57:01;;;;;;;8.67;5.40;;;21.10;1.00;;;;;;5113975;28;20564;-51
2023/08/11 08:59:28;;;;;;;9.57;6.13;;;21.10;1.00;;;;;;5114020;28;20393;-51
2023/08/11 09:01:54;;;;;;;11.10;6.07;;;21.20;1.00;;;;;;5113842;28;20422;-51
2023/08/11 09:04:20;;;;;;;8.83;5.10;;;21.20;1.00;;;;;;5113770;28;20543;-52
2023/08/11 09:06:46;;;;;;;7.97;5.77;;;21.30;1.00;;;;;;5113480;28;20275;-53
2023/08/11 09:09:12;;;;;;;8.20;6.60;;;21.40;1.00;;;;;;5113692;28;20451;-53
2023/08/11 09:11:39;;;;;;;15.60;5.80;;;21.50;1.00;;;;;;5113709;28;20431;-51
2023/08/11 09:14:06;;;;;;;7.20;5.30;;;21.50;1.00;;;;;;5113611;28;20418;-51
2023/08/11 09:16:39;;;;;;;14.10;6.63;;;21.60;1.00;;;;;;5113452;28;20418;-52
2023/08/11 09:19:10;;;;;;;8.97;4.97;;;21.70;1.00;;;;;;5113683;28;20490;-52
2023/08/11 09:21:36;;;;;;;6.67;5.77;;;21.80;1.00;;;;;;5113438;28;20889;-53
2023/08/11 09:24:02;;;;;;;6.23;5.53;;;21.90;1.00;;;;;;5113259;28;20883;-52
2023/08/11 09:26:28;;;;;;;5.13;4.47;;;22.00;1.00;;;;;;5113374;28;20419;-53
2023/08/11 09:28:54;;;;;;;7.93;5.57;;;22.10;1.00;;;;;;5113361;28;20750;-50
2023/08/11 09:31:24;;;;;;;10.60;5.73;;;22.30;1.00;;;;;;5113042;28;20695;-53
2023/08/11 09:33:51;;;;;;;8.17;6.00;;;22.50;1.00;;;;;;5113015;28;20422;-53
2023/08/11 09:36:18;;;;;;;9.30;5.07;;;22.50;1.00;;;;;;5112893;28;20422;-51
2023/08/11 09:38:48;;;;;;;8.60;6.23;;;22.60;1.00;;;;;;5113048;28;20555;-51
2023/08/11 09:41:14;;;;;;;9.93;5.70;;;22.80;1.00;;;;;;5112843;28;20414;-51
2023/08/11 09:43:47;;;;;;;7.87;5.70;;;22.80;1.00;;;;;;5113136;28;20495;-53
2023/08/11 09:46:12;;;;;;;10.23;5.70;;;22.80;1.00;;;;;;5112581;28;20813;-51
2023/08/11 09:48:38;;;;;;;6.63;5.50;;;22.90;1.00;;;;;;5113292;28;20418;-51
2023/08/11 09:51:10;;;;;;;6.90;5.30;;;23.10;1.00;;;;;;5112970;28;20184;-50
2023/08/11 09:53:40;;;;;;;6.07;5.17;;;23.10;1.00;;;;;;5113020;28;20196;-51
2023/08/11 09:56:07;;;;;;;7.87;5.10;;;23.10;1.00;;;;;;5112939;28;20468;-51
2023/08/11 09:58:37;;;;;;;7.77;5.07;;;23.20;1.00;;;;;;5112830;28;20421;-50
2023/08/11 10:01:04;;;;;;;4.97;4.47;;;23.20;1.00;;;;;;5112694;28;20433;-50
2023/08/11 10:03:35;;;;;;;5.50;4.40;;;23.20;1.00;;;;;;5112318;28;20422;-51
2023/08/11 10:06:03;;;;;;;4.20;3.80;;;23.30;1.00;;;;;;5112497;28;20446;-50
2023/08/11 10:08:30;;;;;;;6.33;4.00;;;23.50;1.00;;;;;;5094562;28;20787;-51
2023/08/11 10:10:57;;;;;;;4.90;4.30;;;23.80;1.00;;;;;;5112678;28;20414;-50
2023/08/11 10:13:25;;;;;;;5.10;4.33;;;24.00;1.00;;;;;;5112562;28;20415;-50
2023/08/11 10:15:54;;;;;;;8.30;4.13;;;24.10;1.00;;;;;;5112342;28;20787;-51
2023/08/11 10:18:20;;;;;;;8.40;3.73;;;24.30;1.00;;;;;;5112121;28;20431;-51
2023/08/11 10:20:49;;;;;;;5.77;4.07;;;24.30;1.00;;;;;;5111836;28;20446;-51
2023/08/11 10:23:17;;;;;;;7.27;4.00;;;24.50;1.00;;;;;;5112587;28;20401;-51
2023/08/11 10:25:44;;;;;;;4.97;3.30;;;24.70;1.00;;;;;;5112507;28;20476;-51
2023/08/11 10:28:12;;;;;;;3.40;3.10;;;24.90;1.00;;;;;;5112481;28;20914;-51
2023/08/11 10:30:38;;;;;;;4.70;3.37;;;24.80;1.00;;;;;;5112542;28;20415;-51
2023/08/11 10:33:05;;;;;;;3.90;2.83;;;24.90;1.00;;;;;;5112177;28;20775;-50
2023/08/11 10:35:47;;;;;;;6.33;3.17;;;24.90;1.00;;;;;;5112082;28;20656;-51
2023/08/11 10:38:16;;;;;;;6.03;2.80;;;25.10;1.00;;;;;;5112617;28;20844;-50
2023/08/11 10:40:44;;;;;;;6.37;2.80;;;25.10;1.00;;;;;;5112676;28;20494;-50
2023/08/11 10:43:10;;;;;;;5.13;2.60;;;25.10;1.00;;;;;;5112666;28;20450;-50
2023/08/11 10:45:39;;;;;;;3.83;2.50;;;25.30;1.00;;;;;;5112021;28;20917;-51
2023/08/11 10:48:10;;;;;;;3.07;2.77;;;25.70;1.00;;;;;;5112367;28;20267;-50
2023/08/11 10:50:42;;;;;;;5.17;2.57;;;26.00;1.00;;;;;;5093119;28;20430;-51
2023/08/11 10:53:28;;;;;;;2.93;2.63;;;26.40;1.00;;;;;;5094716;28;20426;-50
2023/08/11 10:56:05;;;;;;;3.33;2.43;;;26.60;1.00;;;;;;5112382;28;20395;-49
2023/08/11 10:58:31;;;;;;;3.67;2.60;;;26.90;1.00;;;;;;5115957;28;20433;-51
2023/08/11 11:00:58;;;;;;;4.00;2.60;;;26.80;1.00;;;;;;5116186;28;20413;-50
2023/08/11 11:03:23;;;;;;;5.90;2.53;;;26.60;1.00;;;;;;5115827;28;20914;-51
2023/08/11 11:05:50;;;;;;;2.33;2.17;;;26.60;1.00;;;;;;5116048;28;20454;-51
2023/08/11 11:08:15;;;;;;;3.17;2.40;;;26.70;1.00;;;;;;5115004;28;20271;-51
2023/08/11 11:10:43;;;;;;;5.03;1.83;;;26.50;1.00;;;;;;5115981;28;20937;-51
2023/08/11 11:13:09;;;;;;;5.43;1.90;;;26.10;1.00;;;;;;5115919;28;20200;-50
2023/08/11 11:15:35;;;;;;;2.00;1.80;;;25.60;1.00;;;;;;5080966;28;20422;-51
2023/08/11 11:18:01;;;;;;;2.23;1.90;;;25.50;1.00;;;;;;5115863;28;20406;-50
2023/08/11 11:20:27;;;;;;;3.07;1.87;;;25.50;1.00;;;;;;5115561;28;20555;-51
2023/08/11 11:22:56;;;;;;;2.23;1.90;;;25.60;1.00;;;;;;5115273;28;20474;-51
2023/08/11 11:25:22;;;;;;;2.17;1.77;;;25.60;1.00;;;;;;5115489;28;20462;-51
2023/08/11 11:27:48;;;;;;;2.73;1.60;;;25.70;1.00;;;;;;5115716;28;20418;-51
2023/08/11 11:30:14;;;;;;;4.63;1.57;;;25.90;1.00;;;;;;5115432;28;20180;-51
2023/08/11 11:32:42;;;;;;;2.03;1.53;;;26.10;1.00;;;;;;5115698;28;20528;-51
2023/08/11 11:35:08;;;;;;;2.93;1.67;;;26.20;1.00;;;;;;5115367;28;20217;-50
2023/08/11 11:37:34;;;;;;;4.80;1.90;;;26.50;1.00;;;;;;5114995;28;20505;-51
2023/08/11 11:40:04;;;;;;;2.27;1.47;;;26.60;1.00;;;;;;5115271;28;20461;-51
2023/08/11 11:42:30;;;;;;;4.63;1.50;;;26.70;1.00;;;;;;5115256;28;20421;-50
2023/08/11 11:44:58;;;;;;;5.07;1.90;;;26.70;1.00;;;;;;5115154;28;20879;-50
2023/08/11 11:47:24;;;;;;;3.67;2.10;;;26.60;1.00;;;;;;5114792;28;20431;-51
2023/08/11 11:50:04;;;;;;;3.47;1.90;;;26.90;1.00;;;;;;5114826;28;20418;-51
2023/08/11 11:52:30;;;;;;;3.83;1.87;;;27.30;1.00;;;;;;5115137;28;20772;-51
2023/08/11 11:54:55;;;;;;;1.87;1.50;;;27.40;1.00;;;;;;5114863;28;20492;-50
2023/08/11 11:57:22;;;;;;;3.70;1.90;;;27.50;1.00;;;;;;5114854;28;20169;-51
2023/08/11 11:59:53;;;;;;;3.30;1.73;;;27.70;1.00;;;;;;5114910;28;20817;-51
2023/08/11 12:02:18;;;;;;;2.20;1.70;;;28.40;1.00;;;;;;5114966;28;20415;-49
2023/08/11 12:04:46;;;;;;;2.70;2.23;;;29.00;1.00;;;;;;5115010;28;20477;-49
2023/08/11 12:07:35;;;;;;;1.60;1.50;;;29.20;1.00;;;;;;5114851;28;20223;-48
2023/08/11 12:10:00;;;;;;;6.33;1.70;;;28.90;1.00;;;;;;5114770;28;20744;-47
2023/08/11 12:12:28;;;;;;;2.17;1.80;;;28.20;1.00;;;;;;5114789;28;20410;-51
2023/08/11 12:15:05;;;;;;;1.47;1.37;;;27.60;1.00;;;;;;5114664;28;20195;-50
2023/08/11 12:17:32;;;;;;;1.73;1.63;;;27.10;1.00;;;;;;5114483;28;20391;-49
2023/08/11 12:19:58;;;;;;;2.23;1.90;;;27.00;1.00;;;;;;5114562;28;20414;-49
2023/08/11 12:22:23;;;;;;;3.10;2.00;;;27.10;1.00;;;;;;5114452;28;20503;-49
2023/08/11 12:24:49;;;;;;;1.93;1.77;;;27.60;1.00;;;;;;5114340;28;20922;-49
2023/08/11 12:27:14;;;;;;;2.53;2.00;;;28.10;1.00;;;;;;5114509;28;20181;-49
2023/08/11 12:29:40;;;;;;;2.10;1.93;;;29.10;1.00;;;;;;5114290;28;20179;-50
2023/08/11 12:32:06;;;;;;;2.10;1.97;;;30.00;1.00;;;;;;5114237;28;20177;-48
2023/08/11 12:34:31;;;;;;;2.80;2.20;;;30.70;1.00;;;;;;5114282;28;20212;-51
2023/08/11 12:36:57;;;;;;;2.43;2.07;;;31.20;1.00;;;;;;5113988;28;20636;-49
2023/08/11 12:39:22;;;;;;;3.30;1.70;;;31.30;1.00;;;;;;5114044;28;20177;-49
2023/08/11 12:41:48;;;;;;;1.97;1.87;;;30.80;1.00;;;;;;5113916;28;20253;-49
2023/08/11 12:44:15;;;;;;;3.10;2.03;;;30.10;1.00;;;;;;5114175;28;20205;-51
2023/08/11 12:46:40;;;;;;;5.23;1.80;;;30.40;1.00;;;;;;5113896;28;20185;-50
2023/08/11 12:49:06;;;;;;;3.27;1.90;;;31.10;1.00;;;;;;5113700;28;20411;-49